Avalon, California
Current Conditions -  °F | °C
As of 5:51 AM on Tuesday 27 Jan 2015 (Local Time) from KAVX Reporting Station
Clear Clear  
Wind Chill: 14°   Ceiling: Unl
Heat Index: 14°   Visibility: 10mi
Dew Point:   Wind: 0mph
Humidity: 53%   Direction: NA
Pressure: 30.17"   Gusts: NA
Location:  33.34°N, 118.33°W
Report Text: KAVX 271351Z AUTO 00000KT 10SM CLR 14/05 A3017 RMK AO2 SLP208 T01440050
Loading
Personal Weather Stations






























Interactive Weather Map New forecast layout! Learn more

10-Day Weather Forecast

Advertisements
Track Severe Weather on mobile